createdAt,value
2022-08-20T00:01:10.645Z,14.07
2022-08-20T00:03:40.585Z,13.88
2022-08-20T00:06:24.921Z,14.10
2022-08-20T00:08:53.078Z,14.05
2022-08-20T00:11:25.536Z,14.27
2022-08-20T00:13:59.030Z,13.05
2022-08-20T00:16:32.809Z,13.00
2022-08-20T00:19:03.380Z,14.65
2022-08-20T00:21:31.506Z,14.48
2022-08-20T00:23:59.116Z,14.38
2022-08-20T00:26:26.579Z,16.23
2022-08-20T00:28:54.055Z,14.77
2022-08-20T00:31:23.964Z,14.60
2022-08-20T00:33:51.953Z,14.70
2022-08-20T00:36:19.269Z,14.18
2022-08-20T00:38:49.376Z,14.88
2022-08-20T00:41:25.850Z,14.10
2022-08-20T00:44:09.696Z,14.18
2022-08-20T00:46:37.577Z,15.02
2022-08-20T00:49:08.221Z,14.45
2022-08-20T00:51:42.414Z,12.52
2022-08-20T00:54:14.644Z,14.02
2022-08-20T00:56:45.162Z,16.00
2022-08-20T00:59:16.412Z,14.60
2022-08-20T01:01:55.889Z,14.27
2022-08-20T01:04:26.403Z,15.98
2022-08-20T01:06:53.549Z,15.52
2022-08-20T01:09:50.055Z,18.17
2022-08-20T01:12:08.066Z,17.52
2022-08-20T01:14:34.932Z,16.85
2022-08-20T01:17:07.700Z,17.40
2022-08-20T01:19:44.645Z,20.08
2022-08-20T01:22:33.197Z,17.38
2022-08-20T01:25:09.800Z,18.63
2022-08-20T01:27:42.568Z,20.65
2022-08-20T01:30:25.008Z,20.95
2022-08-20T01:32:51.764Z,19.67
2022-08-20T01:35:22.298Z,20.00
2022-08-20T01:37:49.217Z,17.23
2022-08-20T01:40:29.402Z,20.58
2022-08-20T01:42:59.109Z,19.40
2022-08-20T01:45:28.153Z,20.10
2022-08-20T01:47:57.921Z,21.17
2022-08-20T01:50:28.709Z,23.35
2022-08-20T01:53:00.966Z,19.75
2022-08-20T01:55:28.057Z,22.80
2022-08-20T01:57:55.307Z,20.15
2022-08-20T02:00:24.001Z,21.30
2022-08-20T02:02:53.061Z,21.58
2022-08-20T02:05:20.281Z,20.27
2022-08-20T02:07:47.257Z,20.10
2022-08-20T02:10:17.495Z,21.67
2022-08-20T02:12:44.771Z,23.42
2022-08-20T02:15:14.254Z,22.75
2022-08-20T02:17:42.201Z,21.48
2022-08-20T02:20:19.496Z,23.00
2022-08-20T02:22:53.064Z,22.83
2022-08-20T02:25:25.598Z,23.45
2022-08-20T02:27:53.975Z,23.27
2022-08-20T02:30:33.161Z,24.48
2022-08-20T02:33:02.238Z,24.83
2022-08-20T02:35:30.745Z,20.95
2022-08-20T02:37:58.226Z,23.50
2022-08-20T02:40:31.267Z,25.30
2022-08-20T02:43:02.409Z,22.90
2022-08-20T02:45:31.297Z,22.63
2022-08-20T02:47:59.346Z,25.38
2022-08-20T02:50:27.459Z,22.73
2022-08-20T02:52:54.530Z,24.05
2022-08-20T02:55:27.610Z,25.08
2022-08-20T02:57:59.851Z,25.15
2022-08-20T03:00:32.049Z,24.25
2022-08-20T03:03:09.248Z,25.00
2022-08-20T03:05:42.426Z,24.42
2022-08-20T03:08:11.565Z,26.15
2022-08-20T03:10:39.647Z,23.27
2022-08-20T03:13:12.162Z,23.83
2022-08-20T03:15:47.463Z,22.70
2022-08-20T03:18:15.657Z,23.50
2022-08-20T03:20:42.919Z,23.60
2022-08-20T03:23:13.549Z,26.20
2022-08-20T03:25:40.493Z,25.33
2022-08-20T03:28:07.387Z,22.85
2022-08-20T03:30:36.947Z,25.65
2022-08-20T03:33:03.990Z,26.00
2022-08-20T03:35:31.992Z,27.83
2022-08-20T03:37:59.040Z,25.15
2022-08-20T03:40:31.818Z,25.15
2022-08-20T03:42:59.028Z,27.90
2022-08-20T03:45:27.575Z,26.92
2022-08-20T03:47:55.808Z,28.05
2022-08-20T03:50:26.010Z,25.98
2022-08-20T03:52:54.242Z,25.88
2022-08-20T03:55:22.147Z,23.15
2022-08-20T03:57:53.137Z,25.35
2022-08-20T04:00:29.237Z,25.63
2022-08-20T04:02:57.265Z,26.88
2022-08-20T04:05:25.401Z,25.92
2022-08-20T04:08:02.813Z,27.50
2022-08-20T04:10:30.891Z,26.48
2022-08-20T04:12:57.706Z,27.75
2022-08-20T04:15:24.533Z,24.73
2022-08-20T04:17:53.451Z,26.35
2022-08-20T04:20:23.727Z,27.95
2022-08-20T04:22:58.478Z,26.02
2022-08-20T04:25:29.685Z,25.45
2022-08-20T04:27:58.710Z,27.00
2022-08-20T04:30:27.145Z,28.35
2022-08-20T04:32:54.351Z,25.58
2022-08-20T04:35:24.519Z,25.52
2022-08-20T04:38:03.415Z,26.50
2022-08-20T04:40:49.237Z,22.65
2022-08-20T04:43:16.034Z,27.08
2022-08-20T04:45:46.021Z,24.63
2022-08-20T04:48:15.293Z,23.98
2022-08-20T04:50:44.922Z,25.80
2022-08-20T04:53:25.868Z,24.30
2022-08-20T04:55:56.839Z,25.50
2022-08-20T04:58:27.727Z,23.05
2022-08-20T05:01:01.255Z,24.70
2022-08-20T05:03:29.470Z,25.70
2022-08-20T05:05:57.006Z,23.10
2022-08-20T05:08:25.606Z,22.38
2022-08-20T05:10:56.058Z,22.00
2022-08-20T05:13:41.015Z,23.35
2022-08-20T05:16:08.161Z,24.95
2022-08-20T05:18:38.090Z,22.67
2022-08-20T05:21:08.040Z,21.98
2022-08-20T05:23:37.039Z,26.55
2022-08-20T05:26:08.037Z,22.67
2022-08-20T05:28:52.733Z,21.13
2022-08-20T05:31:32.693Z,24.77
2022-08-20T05:34:10.395Z,25.10
2022-08-20T05:36:40.738Z,23.55
2022-08-20T05:39:08.912Z,24.40
2022-08-20T05:41:36.489Z,23.65
2022-08-20T05:44:03.569Z,20.40
2022-08-20T05:46:32.137Z,21.42
2022-08-20T05:49:01.484Z,25.13
2022-08-20T05:51:29.603Z,24.73
2022-08-20T05:53:57.987Z,23.85
2022-08-20T05:56:30.568Z,25.52
2022-08-20T05:58:58.923Z,22.73
2022-08-20T06:01:29.915Z,21.08
2022-08-20T06:04:15.240Z,23.73
2022-08-20T06:06:46.895Z,23.13
2022-08-20T06:09:16.304Z,23.13
2022-08-20T06:11:43.046Z,20.75
2022-08-20T06:14:09.940Z,21.73
2022-08-20T06:16:37.307Z,21.13
2022-08-20T06:19:05.807Z,22.48
2022-08-20T06:21:32.756Z,20.60
2022-08-20T06:24:00.733Z,19.40
2022-08-20T06:26:29.873Z,20.48
2022-08-20T06:29:04.642Z,20.00
2022-08-20T06:31:31.472Z,21.40
2022-08-20T06:33:58.301Z,19.95
2022-08-20T06:36:25.135Z,20.88
2022-08-20T06:38:51.953Z,19.27
2022-08-20T06:41:18.871Z,19.60
2022-08-20T06:43:46.531Z,20.35
2022-08-20T06:46:14.543Z,20.77
2022-08-20T06:48:42.215Z,20.10
2022-08-20T06:51:09.928Z,19.05
2022-08-20T06:53:38.909Z,18.00
2022-08-20T06:56:06.667Z,18.42
2022-08-20T06:58:37.920Z,20.00
2022-08-20T07:01:24.484Z,17.65
2022-08-20T07:03:54.831Z,15.95
2022-08-20T07:06:25.319Z,18.27
2022-08-20T07:08:55.697Z,16.98
2022-08-20T07:11:27.717Z,16.52
2022-08-20T07:13:58.689Z,16.42
2022-08-20T07:16:25.972Z,17.20
2022-08-20T07:18:53.136Z,17.10
2022-08-20T07:21:19.963Z,16.92
2022-08-20T07:23:50.017Z,17.33
2022-08-20T07:26:17.591Z,17.52
2022-08-20T07:28:44.808Z,16.70
2022-08-20T07:31:31.336Z,15.95
2022-08-20T07:36:26.986Z,15.57
2022-08-20T07:38:54.641Z,15.10
2022-08-20T07:41:23.857Z,16.92
2022-08-20T07:43:50.593Z,17.58
2022-08-20T07:46:20.830Z,17.35
2022-08-20T07:48:50.237Z,15.98
2022-08-20T07:51:22.190Z,16.13
2022-08-20T07:53:51.556Z,16.33
2022-08-20T07:56:21.655Z,15.75
2022-08-20T07:58:53.108Z,15.48
2022-08-20T08:01:25.962Z,16.55
2022-08-20T08:03:55.606Z,16.17
2022-08-20T08:06:28.692Z,16.05
2022-08-20T08:09:02.428Z,15.85
2022-08-20T08:11:29.878Z,17.02
2022-08-20T08:13:59.854Z,15.98
2022-08-20T08:16:33.709Z,15.00
2022-08-20T08:19:03.719Z,15.90
2022-08-20T08:21:32.515Z,17.45
2022-08-20T08:24:04.076Z,15.75
2022-08-20T08:26:31.206Z,14.52
2022-08-20T08:29:00.706Z,16.42
2022-08-20T08:31:27.638Z,15.25
2022-08-20T08:33:57.591Z,15.75
2022-08-20T08:36:27.424Z,15.02
2022-08-20T08:38:56.477Z,14.88
2022-08-20T08:41:49.872Z,15.85
2022-08-20T08:44:40.051Z,15.23
2022-08-20T08:47:21.792Z,16.02
2022-08-20T08:49:50.054Z,15.88
2022-08-20T08:52:30.297Z,13.82
2022-08-20T08:55:05.262Z,15.55
2022-08-20T08:57:32.648Z,15.73
2022-08-20T09:00:16.501Z,16.38
2022-08-20T09:03:12.957Z,15.82
2022-08-20T09:08:23.341Z,17.70
2022-08-20T09:10:51.824Z,17.67
2022-08-20T09:13:22.329Z,20.63
2022-08-20T09:15:50.979Z,15.88
2022-08-20T09:18:17.965Z,18.00
2022-08-20T09:20:49.554Z,18.50
2022-08-20T09:23:17.168Z,16.80
2022-08-20T09:25:45.105Z,19.40
2022-08-20T09:28:11.980Z,19.05
2022-08-20T09:30:40.866Z,18.08
2022-08-20T09:33:11.833Z,19.42
2022-08-20T09:35:46.529Z,21.05
2022-08-20T09:38:19.913Z,20.88
2022-08-20T09:40:58.634Z,20.48
2022-08-20T09:43:28.667Z,21.58
2022-08-20T09:45:57.702Z,23.55
2022-08-20T09:48:32.165Z,24.35
2022-08-20T09:51:01.646Z,25.88
2022-08-20T09:53:32.132Z,21.92
2022-08-20T09:56:00.145Z,23.88
2022-08-20T09:58:49.869Z,24.75
2022-08-20T10:01:20.877Z,22.85
2022-08-20T10:03:49.455Z,31.55
2022-08-20T10:06:19.857Z,26.63
2022-08-20T10:08:49.875Z,26.75
2022-08-20T10:11:18.004Z,26.23
2022-08-20T10:13:50.184Z,23.30
2022-08-20T10:16:17.100Z,23.25
2022-08-20T10:18:54.112Z,30.17
2022-08-20T10:21:21.095Z,24.27
2022-08-20T10:23:48.031Z,25.23
2022-08-20T10:26:17.761Z,24.05
2022-08-20T10:28:46.891Z,23.92
2022-08-20T10:31:17.340Z,23.95
2022-08-20T10:33:44.172Z,22.35
2022-08-20T10:36:15.426Z,26.77
2022-08-20T10:38:43.276Z,27.55
2022-08-20T10:41:11.279Z,22.70
2022-08-20T10:43:38.392Z,21.17
2022-08-20T10:46:05.874Z,23.50
2022-08-20T10:48:35.434Z,21.33
2022-08-20T10:51:02.176Z,24.98
2022-08-20T10:53:29.303Z,22.80
2022-08-20T10:55:58.860Z,22.65
2022-08-20T10:58:37.454Z,24.05
2022-08-20T11:01:08.201Z,24.92
2022-08-20T11:03:35.542Z,24.00
2022-08-20T11:06:05.509Z,24.98
2022-08-20T11:08:33.479Z,29.33
2022-08-20T11:11:03.010Z,22.52
2022-08-20T11:13:32.821Z,27.33
2022-08-20T11:16:00.592Z,25.50
2022-08-20T11:18:27.688Z,26.58
2022-08-20T11:20:55.499Z,24.92
2022-08-20T11:23:22.387Z,24.92
2022-08-20T11:25:49.373Z,26.35
2022-08-20T11:28:16.327Z,28.52
2022-08-20T11:30:58.251Z,30.60
2022-08-20T11:33:27.184Z,43.17
2022-08-20T11:35:55.997Z,31.23
2022-08-20T11:38:29.879Z,28.08
2022-08-20T11:41:04.208Z,27.75
2022-08-20T11:43:33.342Z,25.38
2022-08-20T11:46:00.197Z,26.85
2022-08-20T11:48:27.013Z,26.52
2022-08-20T11:50:57.246Z,26.23
2022-08-20T11:53:26.553Z,28.63
2022-08-20T11:56:01.303Z,26.70
2022-08-20T11:58:28.557Z,22.90
2022-08-20T12:00:57.918Z,26.40
2022-08-20T12:03:24.956Z,28.10
2022-08-20T12:05:57.094Z,25.92
2022-08-20T12:08:27.092Z,28.92
2022-08-20T12:10:58.583Z,23.15
2022-08-20T12:13:48.923Z,29.60
2022-08-20T12:16:15.945Z,25.10
2022-08-20T12:18:45.576Z,27.42
2022-08-20T12:21:15.819Z,24.85
2022-08-20T12:23:42.884Z,21.15
2022-08-20T12:26:09.782Z,22.98
2022-08-20T12:28:41.116Z,21.27
2022-08-20T12:31:08.031Z,26.92
2022-08-20T12:33:37.696Z,20.90
2022-08-20T12:36:04.713Z,18.92
2022-08-20T12:38:34.610Z,17.38
2022-08-20T12:41:04.416Z,19.05
2022-08-20T12:43:38.979Z,17.85
2022-08-20T12:46:05.918Z,19.67
2022-08-20T12:48:32.669Z,15.63
2022-08-20T12:51:14.384Z,15.85
2022-08-20T12:53:44.263Z,13.23
2022-08-20T12:56:11.486Z,11.70
2022-08-20T12:58:44.336Z,11.32
2022-08-20T13:01:12.586Z,12.32
2022-08-20T13:03:44.901Z,10.68
2022-08-20T13:06:18.649Z,10.93
2022-08-20T13:08:48.842Z,11.45
2022-08-20T13:11:15.745Z,9.35
2022-08-20T13:13:49.530Z,9.27
2022-08-20T13:16:16.796Z,12.07
2022-08-20T13:18:47.584Z,11.90
2022-08-20T13:21:14.512Z,11.98
2022-08-20T13:23:43.906Z,12.50
2022-08-20T13:29:03.545Z,10.98
2022-08-20T13:31:36.665Z,12.25
2022-08-20T13:34:06.963Z,10.60
2022-08-20T13:36:35.260Z,10.15
2022-08-20T13:39:14.483Z,10.00
2022-08-20T13:41:49.881Z,10.45
2022-08-20T13:44:17.108Z,10.88
2022-08-20T13:46:48.507Z,13.57
2022-08-20T13:49:21.011Z,10.48
2022-08-20T13:51:47.835Z,9.73
2022-08-20T13:54:19.017Z,8.93
2022-08-20T13:56:49.382Z,8.13
2022-08-20T13:59:18.852Z,8.98
2022-08-20T14:01:47.909Z,9.02
2022-08-20T14:04:20.008Z,7.60
2022-08-20T14:06:49.190Z,7.93
2022-08-20T14:09:16.109Z,7.55
2022-08-20T14:11:45.967Z,7.35
2022-08-20T14:14:15.687Z,7.25
2022-08-20T14:16:44.598Z,8.23
2022-08-20T14:19:13.690Z,7.40
2022-08-20T14:21:40.875Z,7.22
2022-08-20T14:24:14.552Z,6.22
2022-08-20T14:26:44.859Z,6.82
2022-08-20T14:29:16.283Z,5.72
2022-08-20T14:31:43.249Z,3.22
2022-08-20T14:34:12.722Z,3.30
2022-08-20T14:36:42.214Z,2.25
2022-08-20T14:39:09.112Z,2.60
2022-08-20T14:41:40.568Z,2.92
2022-08-20T14:44:07.467Z,3.22
2022-08-20T14:46:36.205Z,4.30
2022-08-20T14:49:02.970Z,2.20
2022-08-20T14:51:29.820Z,3.05
2022-08-20T14:53:56.848Z,3.30
2022-08-20T14:56:23.581Z,3.22
2022-08-20T14:58:51.287Z,3.22
2022-08-20T15:01:18.095Z,4.10
2022-08-20T15:03:47.188Z,5.82
2022-08-20T15:06:21.655Z,5.35
2022-08-20T15:08:52.219Z,4.05
2022-08-20T15:11:19.224Z,4.72
2022-08-20T15:13:53.333Z,8.88
2022-08-20T15:16:20.337Z,6.75
2022-08-20T15:18:47.175Z,19.30
2022-08-20T15:21:27.918Z,10.27
2022-08-20T15:24:05.029Z,33.15
2022-08-20T15:26:45.013Z,19.75
2022-08-20T15:29:22.857Z,84.40
2022-08-20T15:32:07.706Z,35.40
2022-08-20T15:34:36.087Z,71.63
2022-08-20T15:37:18.124Z,21.98
2022-08-20T15:39:47.006Z,39.60
2022-08-20T15:42:14.690Z,14.05
2022-08-20T15:44:42.626Z,18.30
2022-08-20T15:47:18.339Z,6.15
2022-08-20T15:49:46.155Z,12.55
2022-08-20T15:52:14.036Z,5.85
2022-08-20T15:54:41.412Z,19.90
2022-08-20T15:57:12.770Z,7.88
2022-08-20T15:59:48.056Z,6.03
2022-08-20T16:02:33.617Z,2.92
2022-08-20T16:05:23.733Z,7.05
2022-08-20T16:08:29.291Z,15.63
2022-08-20T16:11:12.266Z,26.92
2022-08-20T16:13:53.580Z,19.52
2022-08-20T16:16:41.518Z,97.75
2022-08-20T16:19:15.331Z,22.30
2022-08-20T16:21:46.113Z,19.75
2022-08-20T16:24:14.147Z,47.55
2022-08-20T16:27:03.542Z,20.27
2022-08-20T16:29:42.712Z,40.15
2022-08-20T16:32:20.340Z,8.88
2022-08-20T16:34:59.026Z,5.43
2022-08-20T16:37:52.919Z,7.82
2022-08-20T16:40:26.489Z,6.18
2022-08-20T16:42:57.696Z,4.97
2022-08-20T16:45:26.308Z,6.80
2022-08-20T16:48:00.879Z,5.07
2022-08-20T16:51:04.908Z,7.82
2022-08-20T16:53:40.354Z,4.70
2022-08-20T16:56:09.723Z,7.88
2022-08-20T16:58:39.298Z,6.43
2022-08-20T17:01:14.552Z,6.72
2022-08-20T17:03:50.195Z,7.95
2022-08-20T17:06:26.110Z,7.18
2022-08-20T17:08:56.288Z,6.60
2022-08-20T17:11:34.404Z,3.97
2022-08-20T17:14:05.883Z,9.32
2022-08-20T17:16:46.286Z,5.05
2022-08-20T17:19:28.706Z,6.47
2022-08-20T17:22:07.209Z,5.25
2022-08-20T17:24:34.156Z,5.85
2022-08-20T17:27:13.391Z,4.88
2022-08-20T17:29:54.214Z,6.40
2022-08-20T17:32:25.921Z,5.82
2022-08-20T17:34:55.707Z,5.80
2022-08-20T17:37:28.350Z,5.25
2022-08-20T17:40:17.869Z,4.50
2022-08-20T17:42:53.945Z,5.65
2022-08-20T17:45:43.401Z,6.75
2022-08-20T17:48:22.081Z,5.93
2022-08-20T17:50:52.902Z,5.30
2022-08-20T17:53:30.958Z,6.93
2022-08-20T17:56:02.953Z,5.38
2022-08-20T17:58:54.222Z,5.80
2022-08-20T18:01:41.117Z,4.93
2022-08-20T18:04:32.689Z,6.22
2022-08-20T18:07:26.678Z,5.30
2022-08-20T18:10:14.210Z,5.72
2022-08-20T18:12:52.485Z,5.45
2022-08-20T18:15:43.504Z,4.90
2022-08-20T18:18:56.827Z,5.30
2022-08-20T18:21:49.989Z,5.47
2022-08-20T18:24:52.944Z,5.68
2022-08-20T18:27:25.313Z,6.50
2022-08-20T18:30:01.988Z,6.82
2022-08-20T18:32:34.690Z,6.18
2022-08-20T18:35:37.521Z,6.88
2022-08-20T18:38:34.536Z,7.55
2022-08-20T18:41:13.419Z,7.20
2022-08-20T18:43:43.248Z,6.82
2022-08-20T18:46:23.564Z,7.55
2022-08-20T18:48:57.833Z,6.38
2022-08-20T18:51:50.438Z,7.90
2022-08-20T18:54:28.099Z,7.30
2022-08-20T18:57:27.498Z,8.02
2022-08-20T19:00:16.568Z,7.30
2022-08-20T19:03:07.450Z,8.20
2022-08-20T19:05:47.957Z,7.32
2022-08-20T19:08:24.975Z,4.95
2022-08-20T19:11:03.009Z,7.95
2022-08-20T19:14:06.770Z,5.75
2022-08-20T19:16:40.364Z,6.32
2022-08-20T19:19:32.238Z,7.57
2022-08-20T19:22:01.398Z,6.93
2022-08-20T19:24:34.345Z,6.88
2022-08-20T19:27:07.560Z,6.03
2022-08-20T19:29:46.129Z,9.23
2022-08-20T19:32:28.414Z,8.20
2022-08-20T19:35:07.007Z,6.60
2022-08-20T19:37:51.506Z,6.82
2022-08-20T19:40:45.987Z,6.55
2022-08-20T19:43:17.207Z,8.05
2022-08-20T19:45:57.999Z,7.60
2022-08-20T19:48:29.020Z,6.78
2022-08-20T19:51:37.474Z,7.03
2022-08-20T19:54:11.128Z,6.70
2022-08-20T19:56:41.414Z,6.15
2022-08-20T19:59:12.969Z,5.85
2022-08-20T20:01:50.927Z,5.60
2022-08-20T20:04:18.854Z,5.47
2022-08-20T20:06:50.201Z,7.35
2022-08-20T20:09:25.674Z,4.93
2022-08-20T20:12:00.145Z,6.55
2022-08-20T20:14:33.055Z,5.80
2022-08-20T20:17:04.810Z,5.80
2022-08-20T20:19:34.309Z,6.90
2022-08-20T20:22:19.191Z,6.07
2022-08-20T20:25:04.429Z,5.97
2022-08-20T20:27:33.738Z,5.88
2022-08-20T20:30:36.084Z,6.15
2022-08-20T20:33:16.154Z,7.32
2022-08-20T20:35:46.578Z,8.07
2022-08-20T20:38:25.578Z,5.35
2022-08-20T20:40:56.192Z,5.45
2022-08-20T20:43:42.100Z,5.35
2022-08-20T20:46:22.679Z,6.37
2022-08-20T20:48:58.698Z,5.25
2022-08-20T20:51:33.596Z,6.72
2022-08-20T20:54:05.385Z,5.20
2022-08-20T20:56:42.074Z,6.10
2022-08-20T20:59:10.676Z,6.57
2022-08-20T21:01:46.220Z,5.70
2022-08-20T21:04:27.052Z,5.28
2022-08-20T21:07:00.452Z,5.88
2022-08-20T21:09:27.344Z,5.47
2022-08-20T21:11:54.163Z,5.70
2022-08-20T21:14:21.093Z,5.57
2022-08-20T21:16:50.411Z,6.10
2022-08-20T21:19:17.894Z,5.55
2022-08-20T21:21:45.791Z,5.03
2022-08-20T21:24:12.626Z,5.07
2022-08-20T21:26:39.734Z,5.32
2022-08-20T21:29:09.500Z,3.90
2022-08-20T21:31:43.938Z,6.22
2022-08-20T21:34:12.176Z,4.10
2022-08-20T21:36:41.434Z,4.72
2022-08-20T21:39:08.347Z,5.65
2022-08-20T21:41:36.423Z,4.32
2022-08-20T21:44:21.298Z,5.65
2022-08-20T21:46:49.338Z,4.75
2022-08-20T21:49:16.491Z,4.65
2022-08-20T21:51:43.344Z,5.53
2022-08-20T21:54:10.126Z,4.80
2022-08-20T21:56:37.893Z,4.35
2022-08-20T21:59:05.510Z,4.22
2022-08-20T22:01:32.941Z,5.38
2022-08-20T22:03:59.782Z,6.25
2022-08-20T22:06:26.892Z,3.90
2022-08-20T22:08:53.762Z,3.88
2022-08-20T22:11:23.094Z,4.15
2022-08-20T22:13:50.075Z,8.80
2022-08-20T22:16:21.018Z,4.47
2022-08-20T22:18:48.865Z,5.25
2022-08-20T22:21:22.661Z,4.78
2022-08-20T22:23:53.327Z,5.13
2022-08-20T22:26:21.084Z,3.70
2022-08-20T22:28:51.119Z,4.20
2022-08-20T22:31:22.175Z,6.07
2022-08-20T22:33:48.946Z,6.05
2022-08-20T22:36:15.979Z,4.93
2022-08-20T22:38:42.850Z,4.50
2022-08-20T22:41:10.065Z,4.85
2022-08-20T22:43:37.190Z,4.50
2022-08-20T22:46:24.510Z,3.75
2022-08-20T22:48:53.929Z,4.43
2022-08-20T22:51:27.991Z,5.20
2022-08-20T22:53:54.979Z,4.10
2022-08-20T22:56:22.873Z,5.35
2022-08-20T22:58:58.159Z,3.78
2022-08-20T23:01:25.778Z,3.47
2022-08-20T23:03:53.198Z,5.97
2022-08-20T23:06:20.212Z,4.22
2022-08-20T23:08:47.118Z,5.93
2022-08-20T23:11:13.952Z,4.95
2022-08-20T23:13:43.654Z,4.30
2022-08-20T23:16:10.626Z,5.82
2022-08-20T23:18:40.678Z,4.95
2022-08-20T23:21:07.433Z,4.57
2022-08-20T23:23:34.250Z,4.72
2022-08-20T23:26:01.384Z,5.53
2022-08-20T23:28:28.243Z,3.38
2022-08-20T23:30:57.460Z,5.97
2022-08-20T23:33:34.490Z,3.50
2022-08-20T23:36:07.381Z,4.63
2022-08-20T23:38:34.363Z,4.18
2022-08-20T23:41:01.118Z,4.43
2022-08-20T23:43:27.963Z,4.32
2022-08-20T23:46:00.393Z,3.95
2022-08-20T23:48:27.183Z,4.65
2022-08-20T23:50:53.960Z,5.65
2022-08-20T23:53:20.686Z,4.18
2022-08-20T23:55:47.496Z,6.43
2022-08-20T23:58:18.211Z,3.70
